Mine Maru — JK5487 — position and weather

sailwx.info

Track history (hours):
 
Tides and Currents Weather Stations Pressure Air Temp Water Temp Dewpoint Dewpoint Depression Visibility Wind Speed Wind Dir Waves Ship Positions

Mine Maru

Last reported at 2018-Apr-25 06:29 UTC. Time now 2018-Apr-25 06:56 UTC.
Position N 35°32' E 140°03'.

Length 130 m; draft 7.5 m.

Type: Cargo ship. MMSI: 431400732.

Date/timePositionNaut miles runAvg speedWind from/ knotsBaromVisibWave heightAir tempDewpointWater temp
2018-Apr-25 06:29N 35°32' E 140°03'0 0.0
2018-Apr-25 05:59N 35°32' E 140°03'0 0.0
2018-Apr-25 05:29N 35°32' E 140°03'0 0.0
2018-Apr-25 04:59N 35°32' E 140°03'0 0.0
2018-Apr-25 04:29N 35°32' E 140°03'0 0.0
2018-Apr-25 03:59N 35°32' E 140°03'0 0.0
2018-Apr-25 03:29N 35°32' E 140°03'0 0.0
2018-Apr-25 02:56N 35°32' E 140°03'0 0.0
2018-Apr-25 02:29N 35°32' E 140°03'0 0.0
2018-Apr-25 01:59N 35°32' E 140°03'0 0.5
2018-Apr-25 01:30N 35°32' E 140°03'3 5.6
2018-Apr-25 01:00N 35°32' E 139°60'510.0
2018-Apr-25 00:30N 35°30' E 139°54'612.0
2018-Apr-25 00:00N 35°26' E 139°49'612.9
2018-Apr-24 23:30N 35°21' E 139°45'611.8
2018-Apr-24 23:00N 35°15' E 139°47'612.4
2018-Apr-24 22:31N 35°09' E 139°46'612.4
2018-Apr-24 22:01N 35°03' E 139°43'612.2
2018-Apr-24 21:30N 34°58' E 139°38'612.9
2018-Apr-24 21:01N 34°55' E 139°32'4 7.6
2018-Apr-24 20:30N 34°53' E 139°28'812.5
2018-Apr-24 19:54N 34°49' E 139°20'512.2
2018-Apr-24 19:28N 34°46' E 139°15'613.2
2018-Apr-24 18:59N 34°41' E 139°10'815.0
2018-Apr-24 18:27N 34°35' E 139°03'613.6
2018-Apr-24 17:59N 34°32' E 138°56'1410.7
2018-Apr-24 16:39N 34°29' E 138°39'1210.3
2018-Apr-24 15:31N 34°27' E 138°25'310.1
2018-Apr-24 15:14N 34°26' E 138°22'411.9
2018-Apr-24 14:55N 34°26' E 138°18'712.5
2018-Apr-24 14:23N 34°24' E 138°10'195 5.0
2018-Apr-22 23:42N 33°16' E 134°30'1113.0
2018-Apr-22 22:52N 33°20' E 134°43'613.2
2018-Apr-22 22:27N 33°21' E 134°49'713.3
2018-Apr-22 21:54N 33°23' E 134°57'1713.0
2018-Apr-22 20:36N 33°25' E 135°18'112.8
2018-Apr-22 20:29N 33°25' E 135°19'613.0
2018-Apr-22 20:00N 33°25' E 135°27'10212.7
2018-Apr-22 11:59N 34°08' E 137°17'612.6
2018-Apr-22 11:30N 34°11' E 137°24'612.3
2018-Apr-22 11:00N 34°14' E 137°30'612.5
2018-Apr-22 10:31N 34°17' E 137°37'612.4
2018-Apr-22 10:00N 34°19' E 137°44'612.6
2018-Apr-22 09:30N 34°21' E 137°51'712.5
2018-Apr-22 08:57N 34°24' E 137°59'712.2
2018-Apr-22 08:25N 34°26' E 138°06'611.9
2018-Apr-22 07:56N 34°29' E 138°13'611.7
2018-Apr-22 07:27N 34°29' E 138°20'511.7
2018-Apr-22 07:00N 34°30' E 138°26'611.9
2018-Apr-22 06:30N 34°30' E 138°33'611.5
2018-Apr-22 06:00N 34°31' E 138°40'611.1
2018-Apr-22 05:30N 34°31' E 138°47'510.9
2018-Apr-22 05:00N 34°32' E 138°53'5 9.9
2018-Apr-22 04:30N 34°34' E 138°59'611.3
2018-Apr-22 03:59N 34°38' E 139°04'510.3
2018-Apr-22 03:27N 34°42' E 139°08'5 9.9
2018-Apr-22 02:59N 34°45' E 139°12'611.1
2018-Apr-22 02:29N 34°49' E 139°17'510.9
2018-Apr-22 01:59N 34°53' E 139°22'611.3
2018-Apr-22 01:29N 34°57' E 139°27'612.0
2018-Apr-22 01:00N 35°00' E 139°33'612.6
2018-Apr-22 00:30N 35°04' E 139°39'613.1
2018-Apr-22 00:01N 35°09' E 139°44'612.2
2018-Apr-21 23:31N 35°15' E 139°46'612.8
2018-Apr-21 23:00N 35°20' E 139°43'612.1
2018-Apr-21 22:31N 35°26' E 139°45'712.9
2018-Apr-21 22:00N 35°30' E 139°52'613.0
2018-Apr-21 21:30N 35°32' E 139°59'3 6.7
2018-Apr-21 21:00N 35°32' E 140°03'0 0.0
2018-Apr-21 20:30N 35°32' E 140°03'0 0.0
2018-Apr-21 19:59N 35°32' E 140°03'0 0.0
2018-Apr-21 19:29N 35°32' E 140°03'0 0.0
2018-Apr-21 18:59N 35°32' E 140°03'0 0.0
2018-Apr-21 18:29N 35°32' E 140°03'0 0.0
2018-Apr-21 17:59N 35°32' E 140°03'0 0.0
2018-Apr-21 17:29N 35°32' E 140°03'0 0.0
2018-Apr-21 16:56N 35°32' E 140°03'0 0.0
2018-Apr-21 16:29N 35°32' E 140°03'0 0.0
2018-Apr-21 15:59N 35°32' E 140°03'0 0.0
2018-Apr-21 15:29N 35°32' E 140°03'0 0.0
2018-Apr-21 14:59N 35°32' E 140°03'0 0.0
2018-Apr-21 14:26N 35°32' E 140°03'0 0.0
2018-Apr-21 13:59N 35°32' E 140°03'0 0.0
2018-Apr-21 13:26N 35°32' E 140°03'0 0.0
2018-Apr-21 12:59N 35°32' E 140°03'0 0.0
2018-Apr-21 12:29N 35°32' E 140°03'0 0.0
2018-Apr-21 11:59N 35°32' E 140°03'0 0.0
2018-Apr-21 11:29N 35°32' E 140°03'0 0.0
2018-Apr-21 10:59N 35°32' E 140°03'0 0.0
2018-Apr-21 10:26N 35°32' E 140°03'0 0.0
2018-Apr-21 09:59N 35°32' E 140°03'0 0.0
2018-Apr-21 09:29N 35°32' E 140°03'0 0.0
2018-Apr-21 08:59N 35°32' E 140°03'0 0.0
2018-Apr-21 08:30N 35°32' E 140°03'1 2.9
2018-Apr-21 07:59N 35°33' E 140°02'611.6
2018-Apr-21 07:30N 35°31' E 139°55'612.5
2018-Apr-21 07:00N 35°30' E 139°47'2 3.8
2018-Apr-21 06:30N 35°31' E 139°45'0 0.0
2018-Apr-21 06:00N 35°31' E 139°45'0 0.0
2018-Apr-21 05:30N 35°31' E 139°45'0 0.0
2018-Apr-21 05:00N 35°31' E 139°45'0 0.0
2018-Apr-21 04:30N 35°31' E 139°45'0 0.0
2018-Apr-21 04:00N 35°31' E 139°45'0 0.0
2018-Apr-21 03:30N 35°31' E 139°45'0 0.0
2018-Apr-21 03:00N 35°31' E 139°45'0 0.0
2018-Apr-21 02:30N 35°31' E 139°45'0 0.0
2018-Apr-21 02:00N 35°31' E 139°45'0 0.0
2018-Apr-21 01:27N 35°31' E 139°45'0 0.0
2018-Apr-21 01:00N 35°31' E 139°45'0 0.0
2018-Apr-21 00:30N 35°31' E 139°45'0 0.0
2018-Apr-21 00:00N 35°31' E 139°45'0 0.0
2018-Apr-20 23:30N 35°31' E 139°45'0 0.0
2018-Apr-20 23:00N 35°31' E 139°45'0 0.0
2018-Apr-20 22:30N 35°31' E 139°45'0 0.0
2018-Apr-20 22:00N 35°31' E 139°45'0 0.0
2018-Apr-20 21:31N 35°31' E 139°45'1 2.1
2018-Apr-20 21:00N 35°30' E 139°44'3 5.9
2018-Apr-20 20:31N 35°27' E 139°43'510.0
2018-Apr-20 20:01N 35°22' E 139°45'611.6
2018-Apr-20 19:30N 35°17' E 139°46'612.1
2018-Apr-20 19:01N 35°11' E 139°47'612.4
2018-Apr-20 18:31N 35°05' E 139°45'612.1
2018-Apr-20 18:00N 34°59' E 139°43'5 9.6
2018-Apr-20 17:30N 34°56' E 139°38'612.8
2018-Apr-20 17:01N 34°54' E 139°31'913.4
2018-Apr-20 16:20N 34°50' E 139°21'714.0
2018-Apr-20 15:52N 34°46' E 139°15'714.2
2018-Apr-20 15:23N 34°41' E 139°09'614.4
2018-Apr-20 14:59N 34°36' E 139°04'714.0
2018-Apr-20 14:30N 34°32' E 138°58'1913.3
2018-Apr-20 13:04N 34°28' E 138°36'113.4
2018-Apr-20 13:00N 34°28' E 138°34'813.1
2018-Apr-20 12:21N 34°27' E 138°24'512.6
2018-Apr-20 11:56N 34°26' E 138°18'  
2018-Apr-18 04:19N 33°59' E 136°43'6213.2
2018-Apr-17 23:39N 34°31' E 137°47'312.5
2018-Apr-17 23:25N 34°31' E 137°50'712.2
2018-Apr-17 22:53N 34°32' E 137°58'512.6
2018-Apr-17 22:29N 34°32' E 138°04'713.7
2018-Apr-17 22:00N 34°32' E 138°12'913.5
2018-Apr-17 21:21N 34°32' E 138°23'613.0
2018-Apr-17 20:51N 34°32' E 138°31'513.2
2018-Apr-17 20:30N 34°32' E 138°36'1113.8
2018-Apr-17 19:42N 34°32' E 138°50'314.0
2018-Apr-17 19:30N 34°32' E 138°53'713.2
2018-Apr-17 18:56N 34°36' E 139°01'614.1
2018-Apr-17 18:30N 34°41' E 139°06'713.3
2018-Apr-17 17:59N 34°46' E 139°11'713.4
2018-Apr-17 17:29N 34°51' E 139°17'612.7
2018-Apr-17 17:00N 34°55' E 139°23'612.2
2018-Apr-17 16:30N 34°58' E 139°29'612.2
2018-Apr-17 16:01N 35°01' E 139°35'612.9
2018-Apr-17 15:31N 35°05' E 139°41'713.9
2018-Apr-17 15:01N 35°11' E 139°46'612.6
2018-Apr-17 14:31N 35°17' E 139°45'612.7
2018-Apr-17 14:00N 35°23' E 139°42'713.9
2018-Apr-17 13:31N 35°28' E 139°49'713.6
2018-Apr-17 13:01N 35°31' E 139°56'611.8
2018-Apr-17 12:31N 35°32' E 140°03'0 0.2
2018-Apr-17 11:57N 35°32' E 140°03'0 0.0
2018-Apr-17 11:30N 35°32' E 140°03'0 0.0
2018-Apr-17 11:00N 35°32' E 140°03'0 0.0
2018-Apr-17 10:30N 35°32' E 140°03'0 0.0
2018-Apr-17 09:57N 35°32' E 140°03'0 0.0
2018-Apr-17 09:30N 35°32' E 140°03'0 0.0
2018-Apr-17 09:00N 35°32' E 140°03'0 0.0
2018-Apr-17 08:30N 35°32' E 140°03'0 0.0
2018-Apr-17 08:00N 35°32' E 140°03'0 0.0
2018-Apr-17 07:30N 35°32' E 140°03'0 0.0
2018-Apr-17 07:00N 35°32' E 140°03'0 0.0
2018-Apr-17 06:30N 35°32' E 140°03'0 0.0
2018-Apr-17 06:00N 35°32' E 140°03'0 0.0
2018-Apr-17 05:30N 35°32' E 140°03'0 0.0
2018-Apr-17 05:00N 35°32' E 140°03'0 0.0
2018-Apr-17 04:30N 35°32' E 140°03'0 0.0
2018-Apr-17 04:00N 35°32' E 140°03'0 0.0
2018-Apr-17 03:30N 35°32' E 140°03'0 0.0
2018-Apr-17 03:00N 35°32' E 140°03'0 0.0
2018-Apr-17 02:30N 35°32' E 140°03'0 0.0
2018-Apr-17 02:00N 35°32' E 140°03'0 0.0
2018-Apr-17 01:30N 35°32' E 140°03'0 0.0
2018-Apr-17 01:00N 35°32' E 140°03'1 1.5
2018-Apr-17 00:30N 35°32' E 140°02'0 0.7
2018-Apr-16 23:58N 35°32' E 140°02'0 0.0
2018-Apr-16 23:25N 35°32' E 140°02'0 0.0
2018-Apr-16 22:58N 35°32' E 140°02'0 0.0
2018-Apr-16 22:28N 35°32' E 140°02'0 0.0
2018-Apr-16 21:58N 35°32' E 140°02'0 0.0
2018-Apr-16 21:28N 35°32' E 140°02'0 0.0
2018-Apr-16 20:58N 35°32' E 140°02'0 0.0
2018-Apr-16 20:28N 35°32' E 140°02'0 0.0
2018-Apr-16 19:58N 35°32' E 140°02'0 0.1
2018-Apr-16 19:28N 35°32' E 140°02'0 0.0
2018-Apr-16 18:58N 35°32' E 140°02'0 0.0
2018-Apr-16 18:28N 35°32' E 140°02'0 0.0
2018-Apr-16 17:58N 35°32' E 140°02'0 0.1
2018-Apr-16 17:28N 35°32' E 140°02'2 5.0
2018-Apr-16 17:00N 35°32' E 139°59'611.6
2018-Apr-16 16:30N 35°29' E 139°53'612.3
2018-Apr-16 16:01N 35°25' E 139°47'612.3
2018-Apr-16 15:31N 35°20' E 139°44'611.8
2018-Apr-16 15:00N 35°14' E 139°47'612.2
2018-Apr-16 14:30N 35°08' E 139°46'612.5
2018-Apr-16 14:00N 35°03' E 139°42'612.1
2018-Apr-16 13:30N 34°59' E 139°36'1213.0
2018-Apr-16 12:35N 34°52' E 139°24'1713.3
2018-Apr-16 11:19N 34°41' E 139°09'412.4
2018-Apr-16 11:00N 34°38' E 139°05'712.3
2018-Apr-16 10:26N 34°34' E 138°59'512.4
2018-Apr-16 10:00N 34°31' E 138°53'2612.8
2018-Apr-16 07:56N 34°26' E 138°22'  
Track history (hours):
 
Tides and Currents Weather Stations Pressure Air Temp Water Temp Dewpoint Dewpoint Depression Visibility Wind Speed Wind Dir Waves Ship Positions

Mine Maru

Last reported at 2018-Apr-25 06:29 UTC. Time now 2018-Apr-25 06:56 UTC.
Position N 35°32' E 140°03'.

Length 130 m; draft 7.5 m.

Type: Cargo ship. MMSI: 431400732.

Date/timePositionNaut miles runAvg speedWind from/ knotsBaromVisibWave heightAir tempDewpointWater temp
2018-Apr-25 06:29N 35°32' E 140°03'0 0.0
2018-Apr-25 05:59N 35°32' E 140°03'0 0.0
2018-Apr-25 05:29N 35°32' E 140°03'0 0.0
2018-Apr-25 04:59N 35°32' E 140°03'0 0.0
2018-Apr-25 04:29N 35°32' E 140°03'0 0.0
2018-Apr-25 03:59N 35°32' E 140°03'0 0.0
2018-Apr-25 03:29N 35°32' E 140°03'0 0.0
2018-Apr-25 02:56N 35°32' E 140°03'0 0.0
2018-Apr-25 02:29N 35°32' E 140°03'0 0.0
2018-Apr-25 01:59N 35°32' E 140°03'0 0.5
2018-Apr-25 01:30N 35°32' E 140°03'3 5.6
2018-Apr-25 01:00N 35°32' E 139°60'510.0
2018-Apr-25 00:30N 35°30' E 139°54'612.0
2018-Apr-25 00:00N 35°26' E 139°49'612.9
2018-Apr-24 23:30N 35°21' E 139°45'611.8
2018-Apr-24 23:00N 35°15' E 139°47'612.4
2018-Apr-24 22:31N 35°09' E 139°46'612.4
2018-Apr-24 22:01N 35°03' E 139°43'612.2
2018-Apr-24 21:30N 34°58' E 139°38'612.9
2018-Apr-24 21:01N 34°55' E 139°32'4 7.6
2018-Apr-24 20:30N 34°53' E 139°28'812.5
2018-Apr-24 19:54N 34°49' E 139°20'512.2
2018-Apr-24 19:28N 34°46' E 139°15'613.2
2018-Apr-24 18:59N 34°41' E 139°10'815.0
2018-Apr-24 18:27N 34°35' E 139°03'613.6
2018-Apr-24 17:59N 34°32' E 138°56'1410.7
2018-Apr-24 16:39N 34°29' E 138°39'1210.3
2018-Apr-24 15:31N 34°27' E 138°25'310.1
2018-Apr-24 15:14N 34°26' E 138°22'411.9
2018-Apr-24 14:55N 34°26' E 138°18'712.5
2018-Apr-24 14:23N 34°24' E 138°10'195 5.0
2018-Apr-22 23:42N 33°16' E 134°30'1113.0
2018-Apr-22 22:52N 33°20' E 134°43'613.2
2018-Apr-22 22:27N 33°21' E 134°49'713.3
2018-Apr-22 21:54N 33°23' E 134°57'1713.0
2018-Apr-22 20:36N 33°25' E 135°18'112.8
2018-Apr-22 20:29N 33°25' E 135°19'613.0
2018-Apr-22 20:00N 33°25' E 135°27'10212.7
2018-Apr-22 11:59N 34°08' E 137°17'612.6
2018-Apr-22 11:30N 34°11' E 137°24'612.3
2018-Apr-22 11:00N 34°14' E 137°30'612.5
2018-Apr-22 10:31N 34°17' E 137°37'612.4
2018-Apr-22 10:00N 34°19' E 137°44'612.6
2018-Apr-22 09:30N 34°21' E 137°51'712.5
2018-Apr-22 08:57N 34°24' E 137°59'712.2
2018-Apr-22 08:25N 34°26' E 138°06'611.9
2018-Apr-22 07:56N 34°29' E 138°13'611.7
2018-Apr-22 07:27N 34°29' E 138°20'511.7
2018-Apr-22 07:00N 34°30' E 138°26'611.9
2018-Apr-22 06:30N 34°30' E 138°33'611.5
2018-Apr-22 06:00N 34°31' E 138°40'611.1
2018-Apr-22 05:30N 34°31' E 138°47'510.9
2018-Apr-22 05:00N 34°32' E 138°53'5 9.9
2018-Apr-22 04:30N 34°34' E 138°59'611.3
2018-Apr-22 03:59N 34°38' E 139°04'510.3
2018-Apr-22 03:27N 34°42' E 139°08'5 9.9
2018-Apr-22 02:59N 34°45' E 139°12'611.1
2018-Apr-22 02:29N 34°49' E 139°17'510.9
2018-Apr-22 01:59N 34°53' E 139°22'611.3
2018-Apr-22 01:29N 34°57' E 139°27'612.0
2018-Apr-22 01:00N 35°00' E 139°33'612.6
2018-Apr-22 00:30N 35°04' E 139°39'613.1
2018-Apr-22 00:01N 35°09' E 139°44'612.2
2018-Apr-21 23:31N 35°15' E 139°46'612.8
2018-Apr-21 23:00N 35°20' E 139°43'612.1
2018-Apr-21 22:31N 35°26' E 139°45'712.9
2018-Apr-21 22:00N 35°30' E 139°52'613.0
2018-Apr-21 21:30N 35°32' E 139°59'3 6.7
2018-Apr-21 21:00N 35°32' E 140°03'0 0.0
2018-Apr-21 20:30N 35°32' E 140°03'0 0.0
2018-Apr-21 19:59N 35°32' E 140°03'0 0.0
2018-Apr-21 19:29N 35°32' E 140°03'0 0.0
2018-Apr-21 18:59N 35°32' E 140°03'0 0.0
2018-Apr-21 18:29N 35°32' E 140°03'0 0.0
2018-Apr-21 17:59N 35°32' E 140°03'0 0.0
2018-Apr-21 17:29N 35°32' E 140°03'0 0.0
2018-Apr-21 16:56N 35°32' E 140°03'0 0.0
2018-Apr-21 16:29N 35°32' E 140°03'0 0.0
2018-Apr-21 15:59N 35°32' E 140°03'0 0.0
2018-Apr-21 15:29N 35°32' E 140°03'0 0.0
2018-Apr-21 14:59N 35°32' E 140°03'0 0.0
2018-Apr-21 14:26N 35°32' E 140°03'0 0.0
2018-Apr-21 13:59N 35°32' E 140°03'0 0.0
2018-Apr-21 13:26N 35°32' E 140°03'0 0.0
2018-Apr-21 12:59N 35°32' E 140°03'0 0.0
2018-Apr-21 12:29N 35°32' E 140°03'0 0.0
2018-Apr-21 11:59N 35°32' E 140°03'0 0.0
2018-Apr-21 11:29N 35°32' E 140°03'0 0.0
2018-Apr-21 10:59N 35°32' E 140°03'0 0.0
2018-Apr-21 10:26N 35°32' E 140°03'0 0.0
2018-Apr-21 09:59N 35°32' E 140°03'0 0.0
2018-Apr-21 09:29N 35°32' E 140°03'0 0.0
2018-Apr-21 08:59N 35°32' E 140°03'0 0.0
2018-Apr-21 08:30N 35°32' E 140°03'1 2.9
2018-Apr-21 07:59N 35°33' E 140°02'611.6
2018-Apr-21 07:30N 35°31' E 139°55'612.5
2018-Apr-21 07:00N 35°30' E 139°47'2 3.8
2018-Apr-21 06:30N 35°31' E 139°45'0 0.0
2018-Apr-21 06:00N 35°31' E 139°45'0 0.0
2018-Apr-21 05:30N 35°31' E 139°45'0 0.0
2018-Apr-21 05:00N 35°31' E 139°45'0 0.0
2018-Apr-21 04:30N 35°31' E 139°45'0 0.0
2018-Apr-21 04:00N 35°31' E 139°45'0 0.0
2018-Apr-21 03:30N 35°31' E 139°45'0 0.0
2018-Apr-21 03:00N 35°31' E 139°45'0 0.0
2018-Apr-21 02:30N 35°31' E 139°45'0 0.0
2018-Apr-21 02:00N 35°31' E 139°45'0 0.0
2018-Apr-21 01:27N 35°31' E 139°45'0 0.0
2018-Apr-21 01:00N 35°31' E 139°45'0 0.0
2018-Apr-21 00:30N 35°31' E 139°45'0 0.0
2018-Apr-21 00:00N 35°31' E 139°45'0 0.0
2018-Apr-20 23:30N 35°31' E 139°45'0 0.0
2018-Apr-20 23:00N 35°31' E 139°45'0 0.0
2018-Apr-20 22:30N 35°31' E 139°45'0 0.0
2018-Apr-20 22:00N 35°31' E 139°45'0 0.0
2018-Apr-20 21:31N 35°31' E 139°45'1 2.1
2018-Apr-20 21:00N 35°30' E 139°44'3 5.9
2018-Apr-20 20:31N 35°27' E 139°43'510.0
2018-Apr-20 20:01N 35°22' E 139°45'611.6
2018-Apr-20 19:30N 35°17' E 139°46'612.1
2018-Apr-20 19:01N 35°11' E 139°47'612.4
2018-Apr-20 18:31N 35°05' E 139°45'612.1
2018-Apr-20 18:00N 34°59' E 139°43'5 9.6
2018-Apr-20 17:30N 34°56' E 139°38'612.8
2018-Apr-20 17:01N 34°54' E 139°31'913.4
2018-Apr-20 16:20N 34°50' E 139°21'714.0
2018-Apr-20 15:52N 34°46' E 139°15'714.2
2018-Apr-20 15:23N 34°41' E 139°09'614.4
2018-Apr-20 14:59N 34°36' E 139°04'714.0
2018-Apr-20 14:30N 34°32' E 138°58'1913.3
2018-Apr-20 13:04N 34°28' E 138°36'113.4
2018-Apr-20 13:00N 34°28' E 138°34'813.1
2018-Apr-20 12:21N 34°27' E 138°24'512.6
2018-Apr-20 11:56N 34°26' E 138°18'  
2018-Apr-18 04:19N 33°59' E 136°43'6213.2
2018-Apr-17 23:39N 34°31' E 137°47'312.5
2018-Apr-17 23:25N 34°31' E 137°50'712.2
2018-Apr-17 22:53N 34°32' E 137°58'512.6
2018-Apr-17 22:29N 34°32' E 138°04'713.7
2018-Apr-17 22:00N 34°32' E 138°12'913.5
2018-Apr-17 21:21N 34°32' E 138°23'613.0
2018-Apr-17 20:51N 34°32' E 138°31'513.2
2018-Apr-17 20:30N 34°32' E 138°36'1113.8
2018-Apr-17 19:42N 34°32' E 138°50'314.0
2018-Apr-17 19:30N 34°32' E 138°53'713.2
2018-Apr-17 18:56N 34°36' E 139°01'614.1
2018-Apr-17 18:30N 34°41' E 139°06'713.3
2018-Apr-17 17:59N 34°46' E 139°11'713.4
2018-Apr-17 17:29N 34°51' E 139°17'612.7
2018-Apr-17 17:00N 34°55' E 139°23'612.2
2018-Apr-17 16:30N 34°58' E 139°29'612.2
2018-Apr-17 16:01N 35°01' E 139°35'612.9
2018-Apr-17 15:31N 35°05' E 139°41'713.9
2018-Apr-17 15:01N 35°11' E 139°46'612.6
2018-Apr-17 14:31N 35°17' E 139°45'612.7
2018-Apr-17 14:00N 35°23' E 139°42'713.9
2018-Apr-17 13:31N 35°28' E 139°49'713.6
2018-Apr-17 13:01N 35°31' E 139°56'611.8
2018-Apr-17 12:31N 35°32' E 140°03'0 0.2
2018-Apr-17 11:57N 35°32' E 140°03'0 0.0
2018-Apr-17 11:30N 35°32' E 140°03'0 0.0
2018-Apr-17 11:00N 35°32' E 140°03'0 0.0
2018-Apr-17 10:30N 35°32' E 140°03'0 0.0
2018-Apr-17 09:57N 35°32' E 140°03'0 0.0
2018-Apr-17 09:30N 35°32' E 140°03'0 0.0
2018-Apr-17 09:00N 35°32' E 140°03'0 0.0
2018-Apr-17 08:30N 35°32' E 140°03'0 0.0
2018-Apr-17 08:00N 35°32' E 140°03'0 0.0
2018-Apr-17 07:30N 35°32' E 140°03'0 0.0
2018-Apr-17 07:00N 35°32' E 140°03'0 0.0
2018-Apr-17 06:30N 35°32' E 140°03'0 0.0
2018-Apr-17 06:00N 35°32' E 140°03'0 0.0
2018-Apr-17 05:30N 35°32' E 140°03'0 0.0
2018-Apr-17 05:00N 35°32' E 140°03'0 0.0
2018-Apr-17 04:30N 35°32' E 140°03'0 0.0
2018-Apr-17 04:00N 35°32' E 140°03'0 0.0
2018-Apr-17 03:30N 35°32' E 140°03'0 0.0
2018-Apr-17 03:00N 35°32' E 140°03'0 0.0
2018-Apr-17 02:30N 35°32' E 140°03'0 0.0
2018-Apr-17 02:00N 35°32' E 140°03'0 0.0
2018-Apr-17 01:30N 35°32' E 140°03'0 0.0
2018-Apr-17 01:00N 35°32' E 140°03'1 1.5
2018-Apr-17 00:30N 35°32' E 140°02'0 0.7
2018-Apr-16 23:58N 35°32' E 140°02'0 0.0
2018-Apr-16 23:25N 35°32' E 140°02'0 0.0
2018-Apr-16 22:58N 35°32' E 140°02'0 0.0
2018-Apr-16 22:28N 35°32' E 140°02'0 0.0
2018-Apr-16 21:58N 35°32' E 140°02'0 0.0
2018-Apr-16 21:28N 35°32' E 140°02'0 0.0
2018-Apr-16 20:58N 35°32' E 140°02'0 0.0
2018-Apr-16 20:28N 35°32' E 140°02'0 0.0
2018-Apr-16 19:58N 35°32' E 140°02'0 0.1
2018-Apr-16 19:28N 35°32' E 140°02'0 0.0
2018-Apr-16 18:58N 35°32' E 140°02'0 0.0
2018-Apr-16 18:28N 35°32' E 140°02'0 0.0
2018-Apr-16 17:58N 35°32' E 140°02'0 0.1
2018-Apr-16 17:28N 35°32' E 140°02'2 5.0
2018-Apr-16 17:00N 35°32' E 139°59'611.6
2018-Apr-16 16:30N 35°29' E 139°53'612.3
2018-Apr-16 16:01N 35°25' E 139°47'612.3
2018-Apr-16 15:31N 35°20' E 139°44'611.8
2018-Apr-16 15:00N 35°14' E 139°47'612.2
2018-Apr-16 14:30N 35°08' E 139°46'612.5
2018-Apr-16 14:00N 35°03' E 139°42'612.1
2018-Apr-16 13:30N 34°59' E 139°36'1213.0
2018-Apr-16 12:35N 34°52' E 139°24'1713.3
2018-Apr-16 11:19N 34°41' E 139°09'412.4
2018-Apr-16 11:00N 34°38' E 139°05'712.3
2018-Apr-16 10:26N 34°34' E 138°59'512.4
2018-Apr-16 10:00N 34°31' E 138°53'2612.8
2018-Apr-16 07:56N 34°26' E 138°22'  

Dump ship's entire track history